Time;durP1;ratioP1;P1;durP2;ratioP2;P2;SDS_P1;SDS_P2;PMS_P1;PMS_P2;Temp;Humidity;BMP_temperature;BMP_pressure;BME280_temperature;BME280_humidity;BME280_pressure;Samples;Min_cycle;Max_cycle;Signal;HPM_P1;HPM_P2
2021/12/08 00:00:28;;;;;;;86.55;40.72;;;;;;;-1.51;94.05;100283.84;7398866;19;20019;-69
2021/12/08 00:02:56;;;;;;;;;;;;;;;-1.52;93.86;100276.97;7399208;19;20479;-69
2021/12/08 00:05:24;;;;;;;84.38;38.55;;;;;;;-1.54;94.26;100278.63;7397034;19;19932;-69
2021/12/08 00:07:53;;;;;;;85.75;40.70;;;;;;;-1.56;94.12;100283.75;7398765;19;20010;-69
2021/12/08 00:10:52;;;;;;;89.80;39.50;;;;;;;-1.57;94.42;100274.28;7398186;19;20489;-69
2021/12/08 00:13:16;;;;;;;86.20;40.30;;;;;;;-1.58;94.29;100267.44;7397524;19;20376;-68
2021/12/08 00:15:49;;;;;;;80.75;37.88;;;;;;;-1.59;94.46;100265.69;7398467;19;20011;-69
2021/12/08 00:18:22;;;;;;;85.13;39.40;;;;;;;-1.60;94.37;100274.25;7398841;19;20036;-69
2021/12/08 00:20:52;;;;;;;91.53;41.53;;;;;;;-1.61;94.33;100267.38;7398514;19;20011;-69
2021/12/08 00:23:21;;;;;;;88.85;39.63;;;;;;;-1.62;94.35;100257.06;7396075;19;20074;-68
2021/12/08 00:25:49;;;;;;;81.57;39.70;;;;;;;-1.62;94.37;100249.34;7395829;19;20361;-69
2021/12/08 00:28:18;;;;;;;86.55;38.63;;;;;;;-1.65;94.46;100248.41;7397952;19;20019;-69
2021/12/08 00:30:52;;;;;;;82.78;39.72;;;;;;;-1.64;94.45;100249.31;7397466;19;20491;-69
2021/12/08 00:33:22;;;;;;;86.72;39.30;;;;;;;-1.64;94.44;100246.75;7397732;19;20018;-69
2021/12/08 00:35:52;;;;;;;81.38;39.15;;;;;;;-1.64;94.55;100244.16;7396848;19;20014;-69
2021/12/08 00:38:22;;;;;;;85.75;40.03;;;;;;;-1.65;94.60;100234.72;7394950;19;20487;-69
2021/12/08 00:40:52;;;;;;;82.28;38.25;;;;;;;-1.68;94.30;100230.38;7397562;19;20037;-69
2021/12/08 00:43:21;;;;;;;79.68;38.20;;;;;;;-1.65;94.49;100234.72;7395563;19;20424;-68
2021/12/08 00:45:54;;;;;;;89.53;40.83;;;;;;;-1.66;94.62;100228.69;7395020;19;20386;-69
2021/12/08 00:48:23;;;;;;;81.22;40.45;;;;;;;-1.66;94.52;100230.41;7395935;19;20014;-69
2021/12/08 00:50:52;;;;;;;86.07;38.78;;;;;;;-1.66;94.67;100228.69;7397872;19;20015;-69
2021/12/08 00:53:21;;;;;;;83.38;38.25;;;;;;;-1.66;94.75;100228.69;7396672;19;20022;-69
2021/12/08 00:55:49;;;;;;;82.03;41.42;;;;;;;-1.65;94.75;100224.41;7394898;19;20366;-67
2021/12/08 00:58:17;;;;;;;94.13;39.38;;;;;;;-1.65;94.63;100216.69;7396522;19;20491;-68
2021/12/08 01:00:49;;;;;;;80.10;37.60;;;;;;;-1.66;94.55;100212.38;7396522;19;20379;-68
2021/12/08 01:03:21;;;;;;;85.32;39.53;;;;;;;-1.64;94.63;100215.88;7396926;19;20015;-68
2021/12/08 01:05:51;;;;;;;88.97;38.72;;;;;;;-1.64;94.55;100205.59;7395361;19;20015;-68
2021/12/08 01:08:22;;;;;;;82.72;39.58;;;;;;;-1.64;94.41;100211.56;7397126;19;20018;-68
2021/12/08 01:10:53;;;;;;;84.72;40.53;;;;;;;-1.63;94.41;100207.31;7396352;19;20010;-68
2021/12/08 01:13:23;;;;;;;81.20;39.40;;;;;;;-1.62;94.44;100196.16;7396274;19;20018;-68
2021/12/08 01:15:54;;;;;;;85.35;39.97;;;;;;;-1.60;94.59;100196.22;7396416;19;20022;-68
2021/12/08 01:18:26;;;;;;;78.00;38.88;;;;;;;-1.60;94.57;100193.66;7397156;19;20031;-68
2021/12/08 01:20:56;;;;;;;75.53;36.63;;;;;;;-1.59;94.21;100180.81;7396932;19;20010;-67
2021/12/08 01:23:26;;;;;;;78.80;38.53;;;;;;;-1.58;94.35;100182.53;7394884;19;20019;-67
2021/12/08 01:25:54;;;;;;;79.68;38.35;;;;;;;-1.55;94.40;100181.72;7394668;19;20018;-68
2021/12/08 01:28:23;;;;;;;84.43;38.65;;;;;;;-1.55;94.12;100166.28;7396043;19;20015;-68
2021/12/08 01:30:53;;;;;;;82.70;38.83;;;;;;;-1.54;94.17;100160.28;7395923;19;20027;-68
2021/12/08 01:33:27;;;;;;;81.78;37.45;;;;;;;-1.54;94.21;100150.88;7395486;19;20022;-68
2021/12/08 01:35:55;;;;;;;83.63;37.35;;;;;;;-1.54;94.20;100142.28;7395743;19;20040;-69
2021/12/08 01:38:24;;;;;;;79.03;37.95;;;;;;;-1.54;93.73;100143.16;7396128;19;20027;-69
2021/12/08 01:40:53;;;;;;;75.50;37.70;;;;;;;-1.54;93.97;100134.56;7395641;19;20018;-69
2021/12/08 01:43:39;;;;;;;80.07;37.95;;;;;;;-1.55;93.35;100128.56;7393894;19;20040;-67
2021/12/08 01:46:07;;;;;;;80.55;37.13;;;;;;;-1.57;93.85;100119.94;7394278;19;20022;-68
2021/12/08 01:48:40;;;;;;;74.55;36.80;;;;;;;-1.61;93.04;100110.44;7395300;19;20017;-69
2021/12/08 01:51:11;;;;;;;73.97;36.75;;;;;;;-1.60;93.23;100108.75;7395074;19;20027;-69
2021/12/08 01:53:39;;;;;;;75.05;36.10;;;;;;;-1.62;93.36;100105.28;7393948;19;20014;-68
2021/12/08 01:56:08;;;;;;;68.13;35.42;;;;;;;-1.64;93.25;100092.41;7395219;19;20015;-69
2021/12/08 01:58:38;;;;;;;71.53;34.33;;;;;;;-1.66;93.19;100087.19;7393508;19;20023;-68
2021/12/08 02:01:11;;;;;;;71.05;36.25;;;;;;;-1.68;92.84;100080.28;7394808;19;20489;-69
2021/12/08 02:03:42;;;;;;;68.38;34.50;;;;;;;-1.68;93.46;100085.44;7393224;19;20381;-68
2021/12/08 02:06:12;;;;;;;72.88;35.40;;;;;;;-1.70;92.88;100082.00;7393071;19;20364;-69
2021/12/08 02:08:41;;;;;;;71.40;35.63;;;;;;;-1.71;93.01;100086.25;7394566;19;20495;-69
2021/12/08 02:11:11;;;;;;;70.93;34.47;;;;;;;-1.72;93.02;100084.53;7394961;19;20036;-69
2021/12/08 02:13:41;;;;;;;74.53;35.70;;;;;;;-1.75;93.17;100070.75;7396005;19;20365;-69
2021/12/08 02:16:12;;;;;;;68.32;34.25;;;;;;;-1.74;92.77;100070.78;7395019;19;20014;-69
2021/12/08 02:18:47;;;;;;;75.13;36.30;;;;;;;-1.74;93.03;100075.06;7395132;19;20018;-69
2021/12/08 02:21:29;;;;;;;72.63;36.25;;;;;;;-1.74;92.72;100073.34;7394383;19;20479;-68
2021/12/08 02:24:00;;;;;;;71.72;36.22;;;;;;;-1.74;93.20;100072.50;7393676;19;20019;-67
2021/12/08 02:26:29;;;;;;;71.53;33.72;;;;;;;-1.72;93.20;100073.38;7392397;19;20479;-68
2021/12/08 02:28:58;;;;;;;74.72;35.85;;;;;;;-1.73;92.61;100081.94;7394371;19;20028;-68
2021/12/08 02:31:35;;;;;;;69.82;35.63;;;;;;;-1.72;92.64;100086.22;7392402;19;20039;-68
2021/12/08 02:47:44;;;;;;;72.60;34.38;;;;;;;-1.68;92.90;100080.28;7394155;19;20022;-68
2021/12/08 02:50:14;;;;;;;71.65;36.20;;;;;;;-1.67;92.64;100077.78;7394306;19;20021;-68
2021/12/08 02:52:45;;;;;;;71.88;35.05;;;;;;;-1.66;92.75;100071.75;7393904;19;20066;-68
2021/12/08 02:55:13;;;;;;;73.05;35.85;;;;;;;-1.65;92.50;100075.22;7391723;19;20014;-68
2021/12/08 02:57:41;;;;;;;69.82;34.92;;;;;;;-1.67;92.89;100075.19;7393698;19;20022;-68
2021/12/08 03:00:13;;;;;;;72.90;36.70;;;;;;;-1.66;92.88;100061.47;7393567;19;20022;-68
2021/12/08 03:02:41;;;;;;;76.43;37.53;;;;;;;-1.62;92.91;100085.56;7398247;19;20507;-68
2021/12/08 03:05:10;;;;;;;77.03;36.97;;;;;;;-1.61;92.97;100081.28;7398275;19;20031;-68
2021/12/08 03:07:48;;;;;;;70.63;33.15;;;;;;;-1.61;92.71;100086.44;7400273;19;20413;-68
2021/12/08 03:10:19;;;;;;;71.45;36.88;;;;;;;-1.60;92.55;100083.88;7401088;19;20019;-68
2021/12/08 03:12:47;;;;;;;77.07;37.17;;;;;;;-1.58;92.63;100081.31;7397646;19;20396;-68
2021/12/08 03:15:17;;;;;;;65.55;34.85;;;;;;;-1.57;92.70;100081.34;7397838;19;20023;-68
2021/12/08 03:17:46;;;;;;;70.60;37.13;;;;;;;-1.54;92.42;100073.69;7400279;19;20019;-68
2021/12/08 03:20:20;;;;;;;71.63;34.92;;;;;;;-1.53;92.83;100075.44;7400145;19;20031;-68
2021/12/08 03:22:52;;;;;;;66.05;33.97;;;;;;;-1.50;92.46;100069.47;7400873;19;20023;-68
2021/12/08 03:25:23;;;;;;;71.85;35.20;;;;;;;-1.49;92.90;100069.50;7400929;19;20015;-68
2021/12/08 03:28:03;;;;;;;74.57;35.47;;;;;;;-1.47;92.82;100054.06;7399035;19;20037;-68
2021/12/08 03:30:37;;;;;;;65.93;33.15;;;;;;;-1.45;92.43;100046.38;7399525;19;20014;-68
2021/12/08 03:33:05;;;;;;;73.15;36.63;;;;;;;-1.45;92.72;100047.25;7398085;19;20077;-68
2021/12/08 03:35:34;;;;;;;71.82;36.03;;;;;;;-1.43;92.48;100042.13;7399240;19;20011;-69
2021/12/08 03:38:07;;;;;;;67.43;33.63;;;;;;;-1.40;92.94;100057.59;7397133;19;20027;-68
2021/12/08 03:40:35;;;;;;;70.00;35.42;;;;;;;-1.39;92.60;100057.66;7399950;19;20018;-69
2021/12/08 03:43:03;;;;;;;64.28;33.67;;;;;;;-1.36;93.00;100059.41;7399284;19;20014;-69
2021/12/08 03:45:35;;;;;;;66.88;33.38;;;;;;;-1.36;92.32;100041.38;7398584;19;20031;-69
2021/12/08 03:48:15;;;;;;;67.47;35.75;;;;;;;-1.35;92.23;100041.41;7399897;19;20063;-69
2021/12/08 03:50:45;;;;;;;70.80;35.65;;;;;;;-1.34;92.68;100049.97;7399336;19;20512;-69
2021/12/08 03:53:16;;;;;;;70.68;33.80;;;;;;;-1.32;92.37;100050.88;7399077;19;20393;-69
2021/12/08 03:55:46;;;;;;;65.97;35.17;;;;;;;-1.32;92.29;100056.03;7399362;19;20015;-69
2021/12/08 03:58:15;;;;;;;64.65;34.63;;;;;;;-1.30;92.53;100056.94;7398959;19;20015;-69
2021/12/08 04:00:45;;;;;;;60.97;32.72;;;;;;;-1.31;92.18;100040.59;7399183;19;20014;-72
2021/12/08 04:03:14;;;;;;;66.75;34.28;;;;;;;-1.29;92.44;100045.75;7398233;19;20039;-69
2021/12/08 04:05:46;;;;;;;62.70;33.92;;;;;;;-1.29;92.02;100044.91;7396249;19;20032;-68
2021/12/08 04:08:20;;;;;;;65.65;35.35;;;;;;;-1.28;92.41;100054.38;7398689;19;20011;-68
2021/12/08 04:10:51;;;;;;;70.55;36.08;;;;;;;-1.28;92.10;100050.06;7398061;19;20363;-69
2021/12/08 04:13:23;;;;;;;65.93;34.03;;;;;;;-1.26;92.58;100048.41;7395359;19;20018;-69
2021/12/08 04:15:52;;;;;;;65.40;33.72;;;;;;;-1.27;92.39;100049.25;7398696;19;20378;-69
2021/12/08 04:18:20;;;;;;;64.13;33.75;;;;;;;-1.26;92.29;100043.25;7398069;19;20030;-69
2021/12/08 04:20:52;;;;;;;66.57;35.33;;;;;;;-1.26;92.35;100042.38;7398714;19;20018;-69
2021/12/08 04:23:25;;;;;;;64.53;33.75;;;;;;;-1.27;91.89;100030.38;7398139;19;20035;-70
2021/12/08 04:25:57;;;;;;;57.47;32.55;;;;;;;-1.28;91.95;100031.22;7397507;19;20018;-69
2021/12/08 04:28:28;;;;;;;61.40;31.90;;;;;;;-1.31;91.97;100034.59;7399704;19;20043;-69
2021/12/08 04:30:59;;;;;;;63.33;32.90;;;;;;;-1.31;92.08;100027.72;7398299;19;20035;-69
2021/12/08 04:33:28;;;;;;;57.05;29.60;;;;;;;-1.33;91.96;100026.88;7397311;19;20368;-68
2021/12/08 04:35:58;;;;;;;59.88;31.92;;;;;;;-1.35;92.04;100028.53;7395136;19;20019;-69
2021/12/08 04:38:36;;;;;;;61.13;31.75;;;;;;;-1.37;91.98;100019.91;7397668;19;20015;-68
2021/12/08 04:41:11;;;;;;;60.50;31.73;;;;;;;-1.38;91.99;100017.31;7395718;19;20018;-68
2021/12/08 04:43:48;;;;;;;55.70;30.73;;;;;;;-1.41;91.95;100010.44;7396993;19;20019;-68
2021/12/08 04:46:28;;;;;;;61.50;31.85;;;;;;;-1.43;91.93;100012.09;7397526;19;20019;-68
2021/12/08 04:49:17;;;;;;;57.70;29.35;;;;;;;-1.44;91.79;100001.78;7395459;19;20044;-71
2021/12/08 04:51:53;;;;;;;58.17;31.50;;;;;;;-1.48;92.11;100003.44;7397201;19;20040;-68
2021/12/08 05:00:28;;;;;;;57.65;29.98;;;;;;;-1.56;92.20;100018.78;7396183;19;20015;-66
2021/12/08 05:03:21;;;;;;;58.75;29.23;;;;;;;-1.57;92.23;100016.19;7397111;19;20014;-67
2021/12/08 05:08:45;;;;;;;57.22;30.23;;;;;;;-1.60;92.53;100018.72;7394097;19;20015;-67
2021/12/08 05:11:21;;;;;;;58.25;31.02;;;;;;;-1.62;92.47;100021.25;7396147;19;20022;-68
2021/12/08 05:13:53;;;;;;;57.03;29.45;;;;;;;-1.65;92.25;100026.34;7395703;19;20039;-68
2021/12/08 05:16:22;;;;;;;55.45;29.23;;;;;;;-1.68;92.36;100029.72;7396473;19;20023;-68
2021/12/08 05:18:52;;;;;;;53.95;30.10;;;;;;;-1.70;92.34;100035.69;7393909;19;20523;-68
2021/12/08 05:21:26;;;;;;;60.50;31.67;;;;;;;-1.71;92.47;100033.97;7396275;19;20018;-68
2021/12/08 05:23:57;;;;;;;;;;;;;;;-1.72;92.12;100034.78;7393651;19;20509;-68
2021/12/08 05:26:32;;;;;;;58.63;29.10;;;;;;;-1.74;92.59;100039.91;7394542;19;19923;-68
2021/12/08 05:29:03;;;;;;;58.63;30.50;;;;;;;-1.74;92.77;100039.06;7394162;19;20352;-68
2021/12/08 05:31:33;;;;;;;60.60;33.80;;;;;;;-1.75;92.98;100033.03;7395976;19;20040;-67
2021/12/08 05:34:01;;;;;;;62.45;33.03;;;;;;;-1.73;92.62;100030.47;7395026;19;20010;-68
2021/12/08 05:36:30;;;;;;;58.63;31.30;;;;;;;-1.73;92.83;100031.38;7393776;19;20011;-68
2021/12/08 05:39:00;;;;;;;57.80;31.02;;;;;;;-1.73;92.48;100035.63;7393422;19;20022;-68
2021/12/08 05:41:33;;;;;;;52.58;29.70;;;;;;;-1.75;92.48;100035.59;7395016;19;20014;-68
2021/12/08 05:44:03;;;;;;;58.97;30.77;;;;;;;-1.76;92.81;100036.44;7393473;19;20039;-67
2021/12/08 05:46:34;;;;;;;57.42;32.22;;;;;;;-1.82;92.93;100032.06;7394279;19;20039;-71
2021/12/08 05:49:02;;;;;;;56.85;31.08;;;;;;;-1.76;92.91;100044.16;7393326;19;20035;-67
2021/12/08 05:51:33;;;;;;;60.55;30.65;;;;;;;-1.75;93.00;100045.03;7394773;19;20027;-69
2021/12/08 05:54:12;;;;;;;58.10;30.58;;;;;;;-1.76;92.90;100040.72;7393709;19;20031;-68
2021/12/08 05:56:45;;;;;;;56.42;30.85;;;;;;;-1.77;92.78;100039.84;7394218;19;20015;-68
2021/12/08 05:59:14;;;;;;;57.45;30.17;;;;;;;-1.78;92.79;100035.56;7394342;19;20050;-68
2021/12/08 06:01:46;;;;;;;52.72;29.60;;;;;;;-1.78;92.72;100032.13;7392909;19;20018;-69
2021/12/08 06:04:15;;;;;;;56.70;30.10;;;;;;;-1.79;92.85;100026.13;7392735;19;20022;-68
2021/12/08 06:06:45;;;;;;;54.55;29.10;;;;;;;-1.78;92.49;100029.53;7391850;19;20026;-68
2021/12/08 06:09:14;;;;;;;53.70;30.55;;;;;;;-1.78;92.53;100035.56;7392891;19;20017;-68
2021/12/08 06:11:46;;;;;;;55.80;30.45;;;;;;;-1.78;92.71;100032.13;7394132;19;20010;-69
2021/12/08 06:14:16;;;;;;;56.28;31.13;;;;;;;-1.79;92.30;100041.53;7393528;19;20022;-68
2021/12/08 06:16:46;;;;;;;56.25;31.63;;;;;;;-1.83;92.63;100032.91;7394582;19;20018;-68
2021/12/08 06:19:19;;;;;;;53.53;30.25;;;;;;;-1.80;92.69;100039.81;7394112;19;20015;-68
2021/12/08 06:21:49;;;;;;;51.28;29.60;;;;;;;-1.80;92.86;100045.81;7395291;19;20014;-68
2021/12/08 06:24:19;;;;;;;51.50;27.92;;;;;;;-1.80;92.65;100038.09;7391598;19;20483;-69
2021/12/08 06:26:51;;;;;;;51.95;29.17;;;;;;;-1.80;92.53;100050.94;7392790;19;20032;-69
2021/12/08 06:29:20;;;;;;;52.30;29.83;;;;;;;-1.80;92.57;100053.53;7393903;19;20398;-69
2021/12/08 06:31:52;;;;;;;54.50;29.55;;;;;;;-1.81;92.59;100051.81;7393779;19;20022;-69
2021/12/08 06:34:21;;;;;;;55.72;30.15;;;;;;;-1.80;92.43;100047.53;7390975;19;20018;-69
2021/12/08 06:36:54;;;;;;;49.53;28.80;;;;;;;-1.80;92.88;100044.97;7397124;19;20505;-69
2021/12/08 06:39:27;;;;;;;55.33;29.58;;;;;;;-1.81;92.59;100038.06;7398174;19;20022;-69
2021/12/08 06:42:03;;;;;;;52.50;28.43;;;;;;;-1.81;92.67;100035.50;7397825;19;20018;-69
2021/12/08 06:44:34;;;;;;;51.92;28.23;;;;;;;-1.82;92.17;100034.66;7399201;19;20030;-69
2021/12/08 06:47:05;;;;;;;56.75;30.17;;;;;;;-1.81;92.31;100036.38;7398655;19;20038;-69
2021/12/08 06:49:34;;;;;;;54.50;29.20;;;;;;;-1.81;92.34;100033.81;7400591;19;20477;-71
2021/12/08 06:52:10;;;;;;;52.47;27.48;;;;;;;-1.81;92.37;100031.25;7400765;19;20014;-68
2021/12/08 06:54:41;;;;;;;51.38;27.58;;;;;;;-1.80;92.01;100027.81;7399190;19;20379;-68
2021/12/08 06:57:19;;;;;;;50.00;27.55;;;;;;;-1.78;92.25;100021.81;7400649;19;20022;-67
2021/12/08 06:59:57;;;;;;;49.25;27.98;;;;;;;-1.77;92.18;100029.56;7397356;19;20015;-67
2021/12/08 07:02:55;;;;;;;50.13;28.15;;;;;;;-1.76;92.36;100040.72;7398292;19;20019;-67
2021/12/08 07:05:30;;;;;;;52.83;28.45;;;;;;;-1.75;92.40;100037.31;7400359;19;20040;-67
2021/12/08 07:08:02;;;;;;;56.88;29.40;;;;;;;-1.73;92.46;100043.34;7398500;19;20019;-67
2021/12/08 07:10:35;;;;;;;55.25;29.00;;;;;;;-1.74;92.34;100034.78;7397765;19;20035;-67
2021/12/08 07:13:09;;;;;;;53.25;27.83;;;;;;;-1.71;92.43;100045.09;7399597;19;20526;-67
2021/12/08 07:15:45;;;;;;;53.03;27.80;;;;;;;-1.68;92.36;100041.72;7397442;19;20044;-67
2021/12/08 07:18:16;;;;;;;54.47;27.67;;;;;;;-1.67;92.05;100041.75;7399951;19;20045;-67
2021/12/08 07:20:48;;;;;;;55.22;30.08;;;;;;;-1.66;92.03;100038.31;7397646;19;20022;-66
2021/12/08 07:23:20;;;;;;;53.88;29.60;;;;;;;-1.71;91.42;100023.66;7396650;19;20039;-67
2021/12/08 07:25:50;;;;;;;52.03;27.55;;;;;;;-1.62;91.72;100041.81;7400030;19;20028;-68
2021/12/08 07:28:26;;;;;;;51.22;27.90;;;;;;;-1.61;91.31;100035.84;7398935;19;20500;-68
2021/12/08 07:30:58;;;;;;;50.50;26.13;;;;;;;-1.61;91.56;100033.28;7399983;19;20032;-68
2021/12/08 07:33:27;;;;;;;54.42;28.73;;;;;;;-1.59;91.30;100034.16;7399127;19;20100;-68
2021/12/08 07:35:58;;;;;;;52.60;27.15;;;;;;;-1.58;91.11;100023.03;7399358;19;20025;-69
2021/12/08 07:38:29;;;;;;;55.83;28.35;;;;;;;-1.56;91.34;100030.78;7397110;19;20014;-68
2021/12/08 07:41:06;;;;;;;50.28;27.38;;;;;;;-1.52;91.98;100030.84;7398867;19;20015;-68
2021/12/08 07:43:40;;;;;;;57.53;27.50;;;;;;;-1.48;91.75;100022.34;7398515;19;20092;-68
2021/12/08 07:46:12;;;;;;;52.97;28.02;;;;;;;-1.44;92.01;100019.81;7399156;19;20018;-67
2021/12/08 07:48:46;;;;;;;54.63;26.65;;;;;;;-1.42;91.72;100015.56;7397673;19;20031;-67
2021/12/08 07:51:19;;;;;;;51.78;26.88;;;;;;;-1.38;92.03;100014.75;7398738;19;20014;-66
2021/12/08 07:53:48;;;;;;;56.17;27.48;;;;;;;-1.35;91.34;100017.38;7396811;19;20018;-66
2021/12/08 07:56:21;;;;;;;59.53;29.48;;;;;;;-1.32;91.36;100009.69;7396390;19;20027;-67
2021/12/08 07:58:56;;;;;;;56.10;28.23;;;;;;;-1.29;91.17;100009.72;7399061;19;20019;-66
2021/12/08 08:01:29;;;;;;;54.97;28.55;;;;;;;-1.26;91.27;100017.50;7397162;19;20023;-67
2021/12/08 08:03:58;;;;;;;52.55;26.67;;;;;;;-1.24;91.35;100015.84;7396810;19;20483;-66
2021/12/08 08:06:30;;;;;;;57.33;29.92;;;;;;;-1.21;91.54;100013.31;7397794;19;20022;-67
2021/12/08 08:08:58;;;;;;;49.50;26.38;;;;;;;-1.20;90.85;100004.75;7398704;19;20018;-67
2021/12/08 08:11:30;;;;;;;55.05;28.90;;;;;;;-1.19;90.95;100009.06;7398276;19;20025;-67
2021/12/08 08:14:01;;;;;;;53.83;27.08;;;;;;;-1.17;90.42;100006.50;7396983;19;20015;-67
2021/12/08 08:16:34;;;;;;;55.13;26.20;;;;;;;-1.17;90.64;100002.19;7395267;19;20022;-68
2021/12/08 08:19:10;;;;;;;53.67;26.98;;;;;;;-1.17;90.51;99997.03;7396628;19;20022;-67
2021/12/08 08:21:41;;;;;;;52.35;25.80;;;;;;;-1.17;89.95;99994.47;7396409;19;20021;-68
2021/12/08 08:24:10;;;;;;;55.42;28.45;;;;;;;-1.15;90.46;99989.34;7396835;19;20032;-67
2021/12/08 08:26:40;;;;;;;54.03;27.02;;;;;;;-1.14;89.72;99988.50;7397408;19;20035;-67
2021/12/08 08:29:11;;;;;;;55.17;27.73;;;;;;;-1.14;90.19;99991.06;7395285;19;20463;-68
2021/12/08 08:31:43;;;;;;;54.05;26.77;;;;;;;-1.13;89.52;99997.97;7397876;19;20022;-67
2021/12/08 08:34:12;;;;;;;58.70;27.60;;;;;;;-1.12;89.99;99996.28;7396233;19;20015;-66
2021/12/08 08:36:43;;;;;;;56.47;29.02;;;;;;;-1.14;90.11;99980.78;7396886;19;20035;-66
2021/12/08 08:39:15;;;;;;;57.08;27.92;;;;;;;-1.10;90.07;99985.16;7397529;19;20035;-67
2021/12/08 08:41:46;;;;;;;57.38;27.15;;;;;;;-1.08;90.00;99985.16;7397405;19;20022;-67
2021/12/08 08:44:21;;;;;;;54.22;27.20;;;;;;;-1.08;89.40;99972.28;7396327;19;20039;-68
2021/12/08 08:46:50;;;;;;;57.17;27.20;;;;;;;-1.05;90.02;99970.63;7397009;19;20035;-69
2021/12/08 08:49:23;;;;;;;53.15;26.33;;;;;;;-1.03;90.33;99971.50;7396566;19;20472;-69
2021/12/08 08:51:59;;;;;;;98.63;46.55;;;;;;;-1.01;90.01;99976.66;7396961;19;20027;-70
2021/12/08 08:54:31;;;;;;;59.50;28.55;;;;;;;-0.99;89.77;99974.97;7395859;19;20021;-68
2021/12/08 08:57:02;;;;;;;57.08;26.77;;;;;;;-0.98;89.11;99972.41;7396937;19;20022;-67
2021/12/08 08:59:40;;;;;;;55.25;28.40;;;;;;;-0.94;89.68;99975.03;7396921;19;20078;-68
2021/12/08 09:02:10;;;;;;;62.17;29.50;;;;;;;-0.92;89.58;99973.34;7396807;19;20014;-67
2021/12/08 09:04:48;;;;;;;58.03;27.42;;;;;;;-0.89;89.80;99979.38;7394929;19;20022;-67
2021/12/08 09:07:21;;;;;;;56.53;26.50;;;;;;;-0.85;89.86;99973.47;7395762;19;20472;-67
2021/12/08 09:09:51;;;;;;;57.78;26.52;;;;;;;-0.82;89.37;99973.47;7396856;19;20019;-68
2021/12/08 09:12:24;;;;;;;58.88;29.38;;;;;;;-0.81;89.38;99976.91;7396621;19;20015;-68
2021/12/08 09:14:58;;;;;;;58.67;27.65;;;;;;;-0.79;89.35;99980.38;7395209;19;20026;-68
2021/12/08 09:17:29;;;;;;;55.28;26.45;;;;;;;-0.77;89.34;99973.53;7396281;19;20073;-67
2021/12/08 09:20:03;;;;;;;60.55;27.95;;;;;;;-0.73;89.44;99974.44;7396604;19;20022;-65
2021/12/08 09:22:38;;;;;;;59.65;28.02;;;;;;;-0.70;89.44;99975.31;7396027;19;20031;-66
2021/12/08 09:25:13;;;;;;;54.80;27.02;;;;;;;-0.70;88.92;99972.75;7393909;19;20025;-66
2021/12/08 09:27:44;;;;;;;57.35;26.02;;;;;;;-0.68;88.80;99976.22;7394235;19;20029;-65
2021/12/08 09:30:41;;;;;;;53.10;26.17;;;;;;;-0.64;88.84;99965.94;7395320;19;20006;-64
2021/12/08 09:33:14;;;;;;;54.08;27.35;;;;;;;-0.61;88.46;99965.97;7394435;19;20022;-65
2021/12/08 09:35:47;;;;;;;54.88;26.50;;;;;;;-0.59;88.44;99962.56;7394333;19;20023;-64
2021/12/08 09:38:27;;;;;;;52.13;27.15;;;;;;;-0.56;88.20;99967.75;7393972;19;20015;-65
2021/12/08 09:41:06;;;;;;;58.08;26.23;;;;;;;-0.51;88.25;99962.66;7396705;19;20027;-64
2021/12/08 09:43:39;;;;;;;52.33;26.70;;;;;;;-0.48;88.34;99956.66;7393913;19;20023;-64
2021/12/08 09:46:13;;;;;;;52.22;25.08;;;;;;;-0.44;87.97;99950.69;7395135;19;20511;-65
2021/12/08 09:48:43;;;;;;;55.10;25.77;;;;;;;-0.42;87.27;99949.00;7394736;19;20019;-69
2021/12/08 09:51:13;;;;;;;47.83;23.90;;;;;;;-0.41;88.15;99933.56;7395512;19;20014;-69
2021/12/08 09:53:44;;;;;;;51.15;24.75;;;;;;;-0.36;87.73;99936.19;7394422;19;20022;-67
2021/12/08 09:56:13;;;;;;;49.55;23.52;;;;;;;-0.34;87.43;99934.50;7393666;19;20023;-69
2021/12/08 09:58:42;;;;;;;51.97;25.77;;;;;;;-0.35;87.49;99920.72;7394288;19;20491;-67
2021/12/08 10:01:18;;;;;;;48.53;24.13;;;;;;;-0.29;86.92;99935.41;7395083;19;20098;-66
2021/12/08 10:03:47;;;;;;;50.08;26.25;;;;;;;-0.27;87.20;99930.25;7394299;19;20021;-68
2021/12/08 10:06:16;;;;;;;50.42;25.05;;;;;;;-0.25;87.72;99931.13;7395160;19;20110;-68
2021/12/08 10:08:46;;;;;;;52.13;25.83;;;;;;;-0.24;85.49;99928.56;7393036;19;20026;-69
2021/12/08 10:11:15;;;;;;;44.17;23.05;;;;;;;-0.22;86.87;99938.91;7398784;19;20433;-68
2021/12/08 10:13:45;;;;;;;50.33;24.85;;;;;;;-0.20;86.99;99943.22;7402180;19;20022;-68
2021/12/08 10:16:17;;;;;;;45.40;23.30;;;;;;;-0.20;85.91;99948.38;7402756;19;20019;-68
2021/12/08 10:18:47;;;;;;;45.35;22.77;;;;;;;-0.15;86.92;99940.69;7402527;19;20019;-68
2021/12/08 10:21:16;;;;;;;52.40;25.38;;;;;;;-0.12;86.16;99937.28;7402724;19;20010;-67
2021/12/08 10:23:46;;;;;;;47.67;23.80;;;;;;;-0.10;86.33;99935.56;7400275;19;20043;-68
2021/12/08 10:26:18;;;;;;;52.95;25.20;;;;;;;-0.07;86.44;99918.41;7398484;19;20022;-66
2021/12/08 10:28:49;;;;;;;47.90;24.00;;;;;;;-0.04;86.21;99910.69;7400892;19;20018;-67
2021/12/08 10:31:26;;;;;;;52.08;25.10;;;;;;;-0.02;85.85;99905.53;7403393;19;20018;-66
2021/12/08 10:34:01;;;;;;;50.83;25.67;;;;;;;0.02;86.20;99902.13;7398875;19;20026;-67
2021/12/08 10:36:44;;;;;;;42.90;23.23;;;;;;;0.04;85.12;99903.03;7398569;19;20035;-68
2021/12/08 10:39:15;;;;;;;51.70;24.33;;;;;;;0.06;85.95;99903.03;7401993;19;20019;-68
2021/12/08 10:41:50;;;;;;;52.30;26.67;;;;;;;0.08;86.53;99909.06;7401832;19;20023;-67
2021/12/08 10:44:21;;;;;;;55.22;26.23;;;;;;;0.11;85.90;99912.50;7399466;19;20018;-65
2021/12/08 10:46:56;;;;;;;55.38;28.52;;;;;;;0.14;86.07;99916.84;7401592;19;20018;-65
2021/12/08 10:54:22;;;;;;;50.95;26.17;;;;;;;0.15;85.99;99911.69;7398423;19;20019;-66
2021/12/08 10:54:54;;;;;;;47.78;24.40;;;;;;;0.21;85.18;99903.13;7397905;19;20014;-66
2021/12/08 10:57:27;;;;;;;47.63;23.95;;;;;;;0.22;85.50;99904.88;7400349;19;20031;-66
2021/12/08 11:00:02;;;;;;;43.50;23.00;;;;;;;0.20;84.74;99901.41;7400590;19;20029;-65
2021/12/08 11:02:50;;;;;;;47.88;25.95;;;;;;;0.20;83.00;99900.53;7401041;19;20018;-67
2021/12/08 11:05:39;;;;;;;47.78;23.70;;;;;;;0.20;84.11;99895.38;7397493;19;20472;-67
2021/12/08 11:08:11;;;;;;;45.75;23.73;;;;;;;0.20;85.38;99901.41;7397673;19;20487;-66
2021/12/08 11:10:43;;;;;;;44.88;24.30;;;;;;;0.19;84.80;99891.97;7398324;19;20014;-70
2021/12/08 11:13:12;;;;;;;44.63;23.05;;;;;;;0.21;84.93;99891.97;7397284;19;20053;-69
2021/12/08 11:15:42;;;;;;;47.40;24.50;;;;;;;0.22;85.13;99885.94;7400208;19;20022;-69
2021/12/08 11:18:19;;;;;;;45.78;22.65;;;;;;;0.23;84.85;99885.94;7400011;19;20039;-69
2021/12/08 11:20:52;;;;;;;48.17;23.92;;;;;;;0.23;84.92;99875.63;7400395;19;20018;-68
2021/12/08 11:23:38;;;;;;;44.65;22.63;;;;;;;0.26;85.12;99874.78;7395938;19;20015;-69
2021/12/08 11:26:17;;;;;;;47.92;22.55;;;;;;;0.26;84.56;99879.94;7400250;19;20019;-70
2021/12/08 11:28:47;;;;;;;55.13;27.48;;;;;;;0.26;84.83;99877.38;7398488;19;20503;-69
2021/12/08 11:31:18;;;;;;;50.35;25.80;;;;;;;0.28;84.63;99888.56;7400442;19;20023;-69
2021/12/08 11:33:59;;;;;;;46.88;24.90;;;;;;;0.29;84.49;99893.75;7399488;19;20022;-70
2021/12/08 11:36:28;;;;;;;48.25;24.83;;;;;;;0.32;85.12;99895.47;7400497;19;20019;-69
2021/12/08 11:38:57;;;;;;;48.20;24.83;;;;;;;0.35;84.29;99900.63;7397249;19;20010;-70
2021/12/08 11:41:36;;;;;;;47.25;23.55;;;;;;;0.39;84.09;99901.53;7399613;19;20010;-69
2021/12/08 11:44:08;;;;;;;40.03;22.00;;;;;;;0.41;84.14;99900.69;7398217;19;20052;-68
2021/12/08 11:46:42;;;;;;;42.95;21.90;;;;;;;0.43;84.08;99898.09;7400321;19;20011;-69
2021/12/08 11:49:13;;;;;;;44.15;21.83;;;;;;;0.45;84.38;99894.69;7398680;19;20011;-70
2021/12/08 11:51:57;;;;;;;44.83;22.20;;;;;;;0.51;84.16;99903.34;7399655;19;20355;-70
2021/12/08 11:54:50;;;;;;;45.83;22.55;;;;;;;0.53;83.28;99906.78;7397832;19;20026;-69
2021/12/08 11:57:22;;;;;;;38.78;22.40;;;;;;;0.55;83.83;99902.50;7399921;19;20011;-69
2021/12/08 12:00:03;;;;;;;43.22;22.52;;;;;;;0.58;83.58;99911.13;7399699;19;20039;-69
2021/12/08 12:02:35;;;;;;;43.13;23.30;;;;;;;0.56;83.96;99905.06;7397110;19;20040;-70